Peru, IL

8:08 AM CDT on September 24, 2017 (GMT -0500)
Illinois Valley Regional-Duncan

Weather History for KVYS - December, 2010

Change the Weather History Date:

Wednesday, December 22, 2010

  Actual Average Record
Temperature  
Mean Temperature 26 °F -  
Max Temperature 33 °F 32 °F 60 °F (1979)
Min Temperature 18 °F 14 °F -20 °F (1989)
Degree Days  
Heating Degree Days 40    
Moisture  
Dew Point 23 °F    
Average Humidity 85    
Maximum Humidity 88    
Minimum Humidity 81    
Precipitation  
Precipitation 0.00 in - - ()
Sea Level Pressure  
Sea Level Pressure 30.24 in    
Wind  
Wind Speed 15 mph (NW)    
Max Wind Speed 18 mph    
Max Gust Speed 24 mph    
Visibility 7 miles    
Events      
Averages and records for this station are not official NWS values.
T = Trace of Precipitation, MM = Missing Value Source: NWS Daily Summary

Daily Weather History Graph

Daily Weather History Graph

Search for Another Location

Airport or City:

Trip Planner

Search our weather history database for the weather conditions in past years. The results will help you decide how hot, cold, wet, or windy it might be!

Date:

Astronomy

Dec. 22, 2010 Rise Set
Actual Time 7:19 AM CST 4:30 PM CST
Civil Twilight 6:48 AM CST 5:02 PM CST
Nautical Twilight 6:13 AM CST 5:37 PM CST
Astronomical Twilight 5:39 AM CST 6:10 PM CST
Moon 6:13 PM CST (12/22) 8:23 AM CST (12/22)
Length of Visible Light 10h 13m
Length of Day
9h 11m
Full, 98% of the Moon is Illuminated
Dec 22
Full
Dec 27
Last Quarter
Jan 4
New
Jan 12
First Quarter
Jan 19
Full

Hourly Weather History & Observations

Time (CST) Temp. Windchill Dew Point Humidity Pressure Visibility Wind Dir Wind Speed Gust Speed Precip Events Conditions
12:05 AM 19.9 °F 5.7 °F 14.9 °F 81% 30.09 in 10.0 mi WNW 16.1 mph - N/A   Clear
12:25 AM 19.8 °F 5.9 °F 15.1 °F 82% 30.09 in 10.0 mi WNW 15.0 mph 21.9 mph N/A   Clear
12:45 AM 18.5 °F 4.3 °F 14.0 °F 83% 30.09 in 10.0 mi WNW 15.0 mph 20.7 mph N/A   Scattered Clouds
1:05 AM 18.5 °F 4.3 °F 14.4 °F 84% 30.09 in 10.0 mi WNW 15.0 mph - N/A   Mostly Cloudy
1:25 AM 18.9 °F 3.3 °F 14.9 °F 85% 30.09 in 10.0 mi WNW 18.4 mph - N/A   Overcast
1:45 AM 19.0 °F 4.5 °F 15.3 °F 85% 30.10 in 10.0 mi WNW 16.1 mph 20.7 mph N/A   Overcast
2:06 AM 19.9 °F 5.7 °F 16.2 °F 85% 30.11 in 7.0 mi WNW 16.1 mph 20.7 mph N/A   Overcast
2:25 AM 19.9 °F 4.8 °F 16.2 °F 85% 30.11 in 7.0 mi WNW 18.4 mph 23.0 mph N/A   Overcast
2:45 AM 20.3 °F 6.6 °F 16.5 °F 85% 30.12 in 7.0 mi WNW 15.0 mph 21.9 mph N/A   Overcast
3:05 AM 20.8 °F 6.4 °F 17.1 °F 85% 30.11 in 7.0 mi WNW 17.3 mph - N/A   Overcast
3:25 AM 21.6 °F 7.8 °F 17.6 °F 85% 30.11 in 7.0 mi WNW 16.1 mph - N/A   Overcast
3:45 AM 21.2 °F 6.4 °F 17.6 °F 86% 30.12 in 7.0 mi WNW 18.4 mph - N/A   Overcast
4:06 AM 22.5 °F 8.5 °F 18.7 °F 85% 30.12 in 7.0 mi WNW 17.3 mph 23.0 mph N/A   Overcast
4:25 AM 23.0 °F 10.1 °F 19.2 °F 85% 30.12 in 7.0 mi WNW 15.0 mph 21.9 mph N/A   Overcast
4:46 AM 23.0 °F 11.1 °F 19.4 °F 86% 30.13 in 7.0 mi WNW 12.7 mph 19.6 mph N/A   Overcast
5:05 AM 23.5 °F 9.9 °F 19.9 °F 86% 30.13 in 7.0 mi WNW 17.3 mph 21.9 mph N/A   Overcast
5:26 AM 24.1 °F 10.1 °F 20.5 °F 86% 30.13 in 7.0 mi WNW 18.4 mph - N/A   Overcast
5:45 AM 24.8 °F 11.1 °F 21.6 °F 87% 30.14 in 7.0 mi NW 18.4 mph 23.0 mph N/A   Overcast
6:06 AM 25.3 °F 11.8 °F 21.9 °F 87% 30.14 in 7.0 mi NW 18.4 mph - N/A   Overcast
6:25 AM 25.7 °F 12.7 °F 22.1 °F 86% 30.16 in 5.0 mi NW 17.3 mph 24.2 mph N/A   Overcast
6:46 AM 25.9 °F 13.3 °F 22.5 °F 87% 30.16 in 5.0 mi NW 16.1 mph - N/A   Overcast
7:05 AM 26.2 °F 13.4 °F 22.8 °F 87% 30.17 in 5.0 mi WNW 17.3 mph - N/A   Overcast
7:26 AM 26.2 °F 14.2 °F 22.6 °F 86% 30.18 in 4.0 mi WNW 15.0 mph - N/A   Overcast
7:45 AM 26.2 °F 13.8 °F 22.6 °F 86% 30.19 in 4.0 mi WNW 16.1 mph - N/A   Overcast
8:06 AM 26.2 °F 13.8 °F 22.6 °F 86% 30.21 in 4.0 mi NW 16.1 mph - N/A   Overcast
8:25 AM 26.6 °F 15.7 °F 23.0 °F 86% 30.21 in 4.0 mi WNW 12.7 mph - N/A   Overcast
8:45 AM 26.6 °F 15.2 °F 23.0 °F 86% 30.24 in 4.0 mi WNW 13.8 mph - N/A   Overcast
9:05 AM 27.0 °F 17.3 °F 23.4 °F 86% 30.24 in 4.0 mi WNW 10.4 mph - N/A   Overcast
9:25 AM 27.5 °F 17.4 °F 23.9 °F 86% 30.25 in 4.0 mi WNW 11.5 mph - N/A   Overcast
9:45 AM 28.0 °F 18.6 °F 24.4 °F 86% 30.26 in 4.0 mi NW 10.4 mph - N/A   Overcast
10:05 AM 28.4 °F 18.5 °F 25.0 °F 87% 30.27 in 4.0 mi NW 11.5 mph - N/A   Overcast
10:25 AM 29.1 °F 19.4 °F 25.7 °F 87% 30.28 in 3.0 mi NW 11.5 mph - N/A   Overcast
10:45 AM 30.0 °F 20.5 °F 26.6 °F 87% 30.28 in 3.0 mi NW 11.5 mph - N/A   Overcast
11:05 AM 30.0 °F 19.5 °F 26.6 °F 87% 30.28 in 3.0 mi NNW 13.8 mph - N/A   Overcast
11:25 AM 30.2 °F 20.2 °F 27.1 °F 88% 30.28 in 3.0 mi NNW 12.7 mph - N/A   Overcast
11:45 AM 30.7 °F 20.4 °F 27.5 °F 88% 30.28 in 4.0 mi NNW 13.8 mph - N/A   Overcast
12:05 PM 31.3 °F 21.6 °F 27.9 °F 87% 30.28 in 5.0 mi NNW 12.7 mph - N/A   Overcast
12:25 PM 32.2 °F 21.8 °F 28.4 °F 86% 30.29 in 5.0 mi North 15.0 mph - N/A   Overcast
12:45 PM 32.2 °F 21.4 °F 28.2 °F 85% 30.29 in 7.0 mi North 16.1 mph - N/A   Overcast
1:05 PM 32.2 °F 22.7 °F 28.4 °F 86% 30.30 in 7.0 mi North 12.7 mph - N/A   Overcast
1:26 PM 32.5 °F 23.7 °F 28.4 °F 85% 30.31 in 7.0 mi North 11.5 mph - N/A   Overcast
1:45 PM 32.9 °F 24.1 °F 28.4 °F 84% 30.32 in 7.0 mi North 11.5 mph - N/A   Overcast
2:05 PM 33.3 °F 24.6 °F 28.4 °F 82% 30.33 in 10.0 mi North 11.5 mph - N/A   Overcast
2:25 PM 33.4 °F 25.4 °F 28.8 °F 83% 30.33 in 7.0 mi North 10.4 mph - N/A   Overcast
2:45 PM 33.4 °F 25.9 °F 28.9 °F 84% 30.34 in 10.0 mi North 9.2 mph - N/A   Overcast
3:05 PM 33.4 °F 25.4 °F 28.9 °F 84% 30.36 in 10.0 mi North 10.4 mph - N/A   Overcast
3:26 PM 33.4 °F 24.3 °F 28.6 °F 82% 30.36 in 10.0 mi North 12.7 mph - N/A   Overcast
3:45 PM 33.3 °F 25.1 °F 28.8 °F 84% 30.37 in 10.0 mi NNW 10.4 mph - N/A   Overcast
4:06 PM 32.4 °F 24.6 °F 27.9 °F 83% 30.38 in 10.0 mi NNW 9.2 mph - N/A   Mostly Cloudy
4:25 PM 31.1 °F 23.7 °F 27.1 °F 85% 30.39 in 7.0 mi NW 8.1 mph - N/A   Clear
4:46 PM 30.2 °F 21.9 °F 25.9 °F 84% 30.39 in 10.0 mi NNW 9.2 mph - N/A   Clear
5:05 PM 29.3 °F 20.8 °F 25.3 °F 85% 30.40 in 10.0 mi NW 9.2 mph - N/A   Mostly Cloudy
5:26 PM 30.2 °F 21.9 °F 27.0 °F 88% 30.41 in 7.0 mi NW 9.2 mph - N/A   Overcast
5:45 PM 29.8 °F 21.5 °F 26.6 °F 88% 30.41 in 7.0 mi NW 9.2 mph - N/A   Overcast
6:05 PM 29.8 °F 22.2 °F 26.4 °F 87% 30.41 in 7.0 mi NW 8.1 mph - N/A   Overcast
6:25 PM 30.0 °F 21.7 °F 26.6 °F 87% 30.42 in 7.0 mi NW 9.2 mph - N/A   Overcast
6:45 PM 30.2 °F 21.9 °F 26.6 °F 86% 30.43 in 7.0 mi NW 9.2 mph - N/A   Overcast
7:05 PM 30.2 °F 23.4 °F 26.6 °F 86% 30.44 in 7.0 mi NW 6.9 mph - N/A   Overcast
7:25 PM 30.7 °F 22.6 °F 27.1 °F 86% 30.45 in 10.0 mi NNW 9.2 mph - N/A   Overcast
7:45 PM 31.3 °F 23.3 °F 26.8 °F 83% 30.44 in 10.0 mi NNW 9.2 mph - N/A   Overcast
8:05 PM 30.9 °F 21.7 °F 26.4 °F 83% 30.45 in 10.0 mi North 11.5 mph - N/A   Overcast
8:25 PM 30.4 °F 22.2 °F 25.9 °F 83% 30.46 in 10.0 mi NNW 9.2 mph - N/A   Overcast
8:45 PM 28.6 °F 20.7 °F 24.6 °F 85% 30.46 in 10.0 mi NNW 8.1 mph - N/A   Scattered Clouds
9:05 PM 27.0 °F 18.7 °F 23.7 °F 88% 30.46 in 7.0 mi NNW 8.1 mph - N/A   Clear
9:25 PM 26.4 °F 18.0 °F 23.0 °F 87% 30.47 in 7.0 mi NNW 8.1 mph - N/A   Clear
9:45 PM 25.5 °F 16.2 °F 22.6 °F 89% 30.46 in 7.0 mi NNW 9.2 mph - N/A   Clear
10:05 PM 24.8 °F 16.1 °F 22.1 °F 89% 30.47 in 7.0 mi NW 8.1 mph - N/A   Clear
10:25 PM 24.3 °F 16.3 °F 21.9 °F 91% 30.47 in 5.0 mi NW 6.9 mph - N/A   Clear
10:45 PM 22.6 °F 14.3 °F 20.5 °F 91% 30.48 in 3.0 mi NW 6.9 mph - N/A   Clear
11:05 PM 21.4 °F 12.8 °F 19.4 °F 92% 30.47 in 2.5 mi NW 6.9 mph - N/A   Clear
11:25 PM 20.3 °F 12.5 °F 18.3 °F 92% 30.47 in 2.5 mi NW 5.8 mph - N/A   Clear
11:45 PM 21.2 °F 13.6 °F 19.4 °F 93% 30.47 in 2.0 mi NW 5.8 mph - N/A   Clear